sensor_id;sensor_type;location;lat;lon;timestamp;temperature;humidity
6738;DHT22;3406;49.902;8.596;2022-08-25T00:01:56;23.40;47.50
6738;DHT22;3406;49.902;8.596;2022-08-25T00:04:24;23.50;47.60
6738;DHT22;3406;49.902;8.596;2022-08-25T00:06:51;23.50;47.60
6738;DHT22;3406;49.902;8.596;2022-08-25T00:09:22;23.50;47.60
6738;DHT22;3406;49.902;8.596;2022-08-25T00:11:51;23.50;47.60
6738;DHT22;3406;49.902;8.596;2022-08-25T00:14:21;23.50;47.60
6738;DHT22;3406;49.902;8.596;2022-08-25T00:16:48;23.50;47.70
6738;DHT22;3406;49.902;8.596;2022-08-25T00:19:18;23.50;47.80
6738;DHT22;3406;49.902;8.596;2022-08-25T00:21:45;23.50;47.90
6738;DHT22;3406;49.902;8.596;2022-08-25T00:24:14;23.50;48.00
6738;DHT22;3406;49.902;8.596;2022-08-25T00:26:43;23.50;48.00
6738;DHT22;3406;49.902;8.596;2022-08-25T00:29:12;23.60;48.20
6738;DHT22;3406;49.902;8.596;2022-08-25T00:31:40;23.60;48.40
6738;DHT22;3406;49.902;8.596;2022-08-25T00:34:09;23.60;48.50
6738;DHT22;3406;49.902;8.596;2022-08-25T00:36:36;23.60;48.50
6738;DHT22;3406;49.902;8.596;2022-08-25T00:39:04;23.60;48.60
6738;DHT22;3406;49.902;8.596;2022-08-25T00:41:31;23.70;48.70
6738;DHT22;3406;49.902;8.596;2022-08-25T00:44:02;23.60;48.60
6738;DHT22;3406;49.902;8.596;2022-08-25T00:46:34;23.60;48.70
6738;DHT22;3406;49.902;8.596;2022-08-25T00:49:05;23.60;48.70
6738;DHT22;3406;49.902;8.596;2022-08-25T00:51:36;23.50;48.70
6738;DHT22;3406;49.902;8.596;2022-08-25T00:54:05;23.50;48.80
6738;DHT22;3406;49.902;8.596;2022-08-25T00:56:32;23.50;48.90
6738;DHT22;3406;49.902;8.596;2022-08-25T00:59:00;23.50;49.00
6738;DHT22;3406;49.902;8.596;2022-08-25T01:01:28;23.50;49.00
6738;DHT22;3406;49.902;8.596;2022-08-25T01:03:56;23.50;49.10
6738;DHT22;3406;49.902;8.596;2022-08-25T01:06:23;23.40;49.10
6738;DHT22;3406;49.902;8.596;2022-08-25T01:08:50;23.40;49.20
6738;DHT22;3406;49.902;8.596;2022-08-25T01:11:17;23.40;49.30
6738;DHT22;3406;49.902;8.596;2022-08-25T01:13:47;23.40;49.40
6738;DHT22;3406;49.902;8.596;2022-08-25T01:16:15;23.40;49.50
6738;DHT22;3406;49.902;8.596;2022-08-25T01:18:46;23.30;49.60
6738;DHT22;3406;49.902;8.596;2022-08-25T01:21:16;23.20;49.70
6738;DHT22;3406;49.902;8.596;2022-08-25T01:23:43;23.20;49.80
6738;DHT22;3406;49.902;8.596;2022-08-25T01:26:13;23.10;49.90
6738;DHT22;3406;49.902;8.596;2022-08-25T01:28:42;23.00;50.00
6738;DHT22;3406;49.902;8.596;2022-08-25T01:31:23;23.00;50.10
6738;DHT22;3406;49.902;8.596;2022-08-25T01:33:50;22.90;50.10
6738;DHT22;3406;49.902;8.596;2022-08-25T01:36:18;22.90;50.40
6738;DHT22;3406;49.902;8.596;2022-08-25T01:38:45;22.80;51.00
6738;DHT22;3406;49.902;8.596;2022-08-25T01:41:16;22.70;50.50
6738;DHT22;3406;49.902;8.596;2022-08-25T01:43:43;22.60;50.70
6738;DHT22;3406;49.902;8.596;2022-08-25T01:46:10;22.50;50.90
6738;DHT22;3406;49.902;8.596;2022-08-25T01:48:37;22.40;51.00
6738;DHT22;3406;49.902;8.596;2022-08-25T01:51:04;22.40;51.20
6738;DHT22;3406;49.902;8.596;2022-08-25T01:53:32;22.30;51.30
6738;DHT22;3406;49.902;8.596;2022-08-25T01:55:59;22.20;51.40
6738;DHT22;3406;49.902;8.596;2022-08-25T01:58:29;22.20;51.50
6738;DHT22;3406;49.902;8.596;2022-08-25T02:00:58;22.10;51.60
6738;DHT22;3406;49.902;8.596;2022-08-25T02:03:26;22.10;51.80
6738;DHT22;3406;49.902;8.596;2022-08-25T02:05:54;22.10;51.90
6738;DHT22;3406;49.902;8.596;2022-08-25T02:08:22;22.00;52.00
6738;DHT22;3406;49.902;8.596;2022-08-25T02:10:51;22.00;52.20
6738;DHT22;3406;49.902;8.596;2022-08-25T02:13:18;21.90;52.20
6738;DHT22;3406;49.902;8.596;2022-08-25T02:15:49;21.90;52.40
6738;DHT22;3406;49.902;8.596;2022-08-25T02:18:16;21.80;52.40
6738;DHT22;3406;49.902;8.596;2022-08-25T02:20:44;21.80;52.60
6738;DHT22;3406;49.902;8.596;2022-08-25T02:23:11;21.70;52.60
6738;DHT22;3406;49.902;8.596;2022-08-25T02:25:38;21.70;52.70
6738;DHT22;3406;49.902;8.596;2022-08-25T02:28:08;21.60;52.80
6738;DHT22;3406;49.902;8.596;2022-08-25T02:30:35;21.60;53.00
6738;DHT22;3406;49.902;8.596;2022-08-25T02:33:02;21.50;53.30
6738;DHT22;3406;49.902;8.596;2022-08-25T02:35:29;21.30;53.40
6738;DHT22;3406;49.902;8.596;2022-08-25T02:37:57;21.20;53.70
6738;DHT22;3406;49.902;8.596;2022-08-25T02:40:23;21.20;54.10
6738;DHT22;3406;49.902;8.596;2022-08-25T02:42:50;21.10;54.20
6738;DHT22;3406;49.902;8.596;2022-08-25T02:45:18;21.10;54.40
6738;DHT22;3406;49.902;8.596;2022-08-25T02:47:45;21.00;54.50
6738;DHT22;3406;49.902;8.596;2022-08-25T02:50:12;21.00;54.60
6738;DHT22;3406;49.902;8.596;2022-08-25T02:52:39;21.00;54.80
6738;DHT22;3406;49.902;8.596;2022-08-25T02:55:08;20.90;54.90
6738;DHT22;3406;49.902;8.596;2022-08-25T02:57:38;20.80;55.10
6738;DHT22;3406;49.902;8.596;2022-08-25T03:00:06;20.80;55.40
6738;DHT22;3406;49.902;8.596;2022-08-25T03:02:35;20.70;55.50
6738;DHT22;3406;49.902;8.596;2022-08-25T03:05:03;20.50;55.80
6738;DHT22;3406;49.902;8.596;2022-08-25T03:07:29;20.50;56.00
6738;DHT22;3406;49.902;8.596;2022-08-25T03:09:56;20.50;56.00
6738;DHT22;3406;49.902;8.596;2022-08-25T03:12:23;20.50;56.10
6738;DHT22;3406;49.902;8.596;2022-08-25T03:14:50;20.40;56.10
6738;DHT22;3406;49.902;8.596;2022-08-25T03:17:16;20.40;56.20
6738;DHT22;3406;49.902;8.596;2022-08-25T03:19:44;20.30;56.30
6738;DHT22;3406;49.902;8.596;2022-08-25T03:22:11;20.30;56.40
6738;DHT22;3406;49.902;8.596;2022-08-25T03:24:37;20.40;56.50
6738;DHT22;3406;49.902;8.596;2022-08-25T03:27:04;20.30;56.50
6738;DHT22;3406;49.902;8.596;2022-08-25T03:29:31;20.30;56.50
6738;DHT22;3406;49.902;8.596;2022-08-25T03:31:59;20.30;56.60
6738;DHT22;3406;49.902;8.596;2022-08-25T03:34:28;20.30;56.70
6738;DHT22;3406;49.902;8.596;2022-08-25T03:36:57;20.30;56.80
6738;DHT22;3406;49.902;8.596;2022-08-25T03:39:25;20.30;56.80
6738;DHT22;3406;49.902;8.596;2022-08-25T03:41:52;20.30;56.80
6738;DHT22;3406;49.902;8.596;2022-08-25T03:44:20;20.30;56.80
6738;DHT22;3406;49.902;8.596;2022-08-25T03:46:49;20.30;56.90
6738;DHT22;3406;49.902;8.596;2022-08-25T03:49:21;20.30;56.90
6738;DHT22;3406;49.902;8.596;2022-08-25T03:51:50;20.30;56.90
6738;DHT22;3406;49.902;8.596;2022-08-25T03:54:20;20.40;57.00
6738;DHT22;3406;49.902;8.596;2022-08-25T03:56:48;20.40;57.10
6738;DHT22;3406;49.902;8.596;2022-08-25T03:59:14;20.30;57.10
6738;DHT22;3406;49.902;8.596;2022-08-25T04:01:43;20.30;57.30
6738;DHT22;3406;49.902;8.596;2022-08-25T04:04:12;20.30;57.60
6738;DHT22;3406;49.902;8.596;2022-08-25T04:06:40;20.30;57.90
6738;DHT22;3406;49.902;8.596;2022-08-25T04:09:07;20.20;58.10
6738;DHT22;3406;49.902;8.596;2022-08-25T04:14:05;20.20;58.60
6738;DHT22;3406;49.902;8.596;2022-08-25T04:16:33;20.20;58.80
6738;DHT22;3406;49.902;8.596;2022-08-25T04:19:03;20.10;58.90
6738;DHT22;3406;49.902;8.596;2022-08-25T04:21:30;20.10;59.00
6738;DHT22;3406;49.902;8.596;2022-08-25T04:23:57;20.10;59.10
6738;DHT22;3406;49.902;8.596;2022-08-25T04:26:26;20.10;59.10
6738;DHT22;3406;49.902;8.596;2022-08-25T04:28:53;20.10;59.10
6738;DHT22;3406;49.902;8.596;2022-08-25T04:31:22;20.10;59.10
6738;DHT22;3406;49.902;8.596;2022-08-25T04:33:49;20.10;59.10
6738;DHT22;3406;49.902;8.596;2022-08-25T04:36:17;20.10;59.10
6738;DHT22;3406;49.902;8.596;2022-08-25T04:38:45;20.10;59.10
6738;DHT22;3406;49.902;8.596;2022-08-25T04:41:14;20.10;59.10
6738;DHT22;3406;49.902;8.596;2022-08-25T04:43:42;20.10;59.10
6738;DHT22;3406;49.902;8.596;2022-08-25T04:46:11;20.10;59.10
6738;DHT22;3406;49.902;8.596;2022-08-25T04:48:39;20.10;59.10
6738;DHT22;3406;49.902;8.596;2022-08-25T04:51:08;20.10;59.10
6738;DHT22;3406;49.902;8.596;2022-08-25T04:53:35;20.10;59.10
6738;DHT22;3406;49.902;8.596;2022-08-25T04:56:05;20.10;59.20
6738;DHT22;3406;49.902;8.596;2022-08-25T04:58:32;20.10;59.20
6738;DHT22;3406;49.902;8.596;2022-08-25T05:01:02;20.10;59.30
6738;DHT22;3406;49.902;8.596;2022-08-25T05:03:28;20.10;59.40
6738;DHT22;3406;49.902;8.596;2022-08-25T05:05:57;20.10;59.60
6738;DHT22;3406;49.902;8.596;2022-08-25T05:08:24;20.10;59.70
6738;DHT22;3406;49.902;8.596;2022-08-25T05:10:51;20.10;59.80
6738;DHT22;3406;49.902;8.596;2022-08-25T05:13:19;20.10;60.10
6738;DHT22;3406;49.902;8.596;2022-08-25T05:15:51;20.10;60.20
6738;DHT22;3406;49.902;8.596;2022-08-25T05:18:19;20.10;60.50
6738;DHT22;3406;49.902;8.596;2022-08-25T05:20:47;20.20;61.40
6738;DHT22;3406;49.902;8.596;2022-08-25T05:23:15;20.20;60.60
6738;DHT22;3406;49.902;8.596;2022-08-25T05:25:41;20.30;60.80
6738;DHT22;3406;49.902;8.596;2022-08-25T05:28:09;20.40;60.80
6738;DHT22;3406;49.902;8.596;2022-08-25T05:30:37;20.40;60.80
6738;DHT22;3406;49.902;8.596;2022-08-25T05:33:04;20.50;60.90
6738;DHT22;3406;49.902;8.596;2022-08-25T05:35:31;20.60;61.00
6738;DHT22;3406;49.902;8.596;2022-08-25T05:37:58;20.70;61.10
6738;DHT22;3406;49.902;8.596;2022-08-25T05:40:26;20.80;61.00
6738;DHT22;3406;49.902;8.596;2022-08-25T05:42:53;20.90;61.00
6738;DHT22;3406;49.902;8.596;2022-08-25T05:45:20;21.00;60.90
6738;DHT22;3406;49.902;8.596;2022-08-25T05:47:47;21.20;60.80
6738;DHT22;3406;49.902;8.596;2022-08-25T05:50:14;21.30;60.60
6738;DHT22;3406;49.902;8.596;2022-08-25T05:52:41;21.40;60.50
6738;DHT22;3406;49.902;8.596;2022-08-25T05:55:09;21.60;60.30
6738;DHT22;3406;49.902;8.596;2022-08-25T05:57:37;21.70;60.10
6738;DHT22;3406;49.902;8.596;2022-08-25T06:00:05;21.80;60.00
6738;DHT22;3406;49.902;8.596;2022-08-25T06:02:33;22.00;60.00
6738;DHT22;3406;49.902;8.596;2022-08-25T06:05:10;22.10;59.80
6738;DHT22;3406;49.902;8.596;2022-08-25T06:07:37;22.30;59.80
6738;DHT22;3406;49.902;8.596;2022-08-25T06:10:04;22.40;59.60
6738;DHT22;3406;49.902;8.596;2022-08-25T06:12:32;22.60;59.50
6738;DHT22;3406;49.902;8.596;2022-08-25T06:15:02;22.70;59.40
6738;DHT22;3406;49.902;8.596;2022-08-25T06:17:28;22.80;59.30
6738;DHT22;3406;49.902;8.596;2022-08-25T06:19:55;23.00;59.20
6738;DHT22;3406;49.902;8.596;2022-08-25T06:22:22;23.10;59.00
6738;DHT22;3406;49.902;8.596;2022-08-25T06:24:50;23.30;59.00
6738;DHT22;3406;49.902;8.596;2022-08-25T06:27:17;23.40;58.80
6738;DHT22;3406;49.902;8.596;2022-08-25T06:29:44;23.50;58.70
6738;DHT22;3406;49.902;8.596;2022-08-25T06:32:12;23.60;58.50
6738;DHT22;3406;49.902;8.596;2022-08-25T06:34:39;23.70;58.40
6738;DHT22;3406;49.902;8.596;2022-08-25T06:37:05;23.90;58.30
6738;DHT22;3406;49.902;8.596;2022-08-25T06:39:32;24.00;58.10
6738;DHT22;3406;49.902;8.596;2022-08-25T06:41:59;24.10;57.90
6738;DHT22;3406;49.902;8.596;2022-08-25T06:44:27;24.20;57.80
6738;DHT22;3406;49.902;8.596;2022-08-25T06:46:54;24.40;57.70
6738;DHT22;3406;49.902;8.596;2022-08-25T06:49:22;24.50;57.50
6738;DHT22;3406;49.902;8.596;2022-08-25T06:51:52;24.60;57.40
6738;DHT22;3406;49.902;8.596;2022-08-25T06:54:19;24.60;57.20
6738;DHT22;3406;49.902;8.596;2022-08-25T06:56:45;24.70;57.10
6738;DHT22;3406;49.902;8.596;2022-08-25T06:59:12;24.80;57.10
6738;DHT22;3406;49.902;8.596;2022-08-25T07:01:39;24.80;56.90
6738;DHT22;3406;49.902;8.596;2022-08-25T07:04:06;24.90;56.80
6738;DHT22;3406;49.902;8.596;2022-08-25T07:06:34;25.00;56.70
6738;DHT22;3406;49.902;8.596;2022-08-25T07:09:02;25.10;56.50
6738;DHT22;3406;49.902;8.596;2022-08-25T07:11:29;25.20;56.40
6738;DHT22;3406;49.902;8.596;2022-08-25T07:13:59;25.30;56.30
6738;DHT22;3406;49.902;8.596;2022-08-25T07:16:26;25.40;56.20
6738;DHT22;3406;49.902;8.596;2022-08-25T07:18:53;25.50;56.10
6738;DHT22;3406;49.902;8.596;2022-08-25T07:21:23;25.60;55.90
6738;DHT22;3406;49.902;8.596;2022-08-25T07:23:51;25.70;55.80
6738;DHT22;3406;49.902;8.596;2022-08-25T07:26:19;25.60;55.70
6738;DHT22;3406;49.902;8.596;2022-08-25T07:28:46;25.70;55.80
6738;DHT22;3406;49.902;8.596;2022-08-25T07:31:13;25.80;55.80
6738;DHT22;3406;49.902;8.596;2022-08-25T07:33:40;25.90;55.60
6738;DHT22;3406;49.902;8.596;2022-08-25T07:36:28;26.00;55.50
6738;DHT22;3406;49.902;8.596;2022-08-25T07:38:55;26.00;55.40
6738;DHT22;3406;49.902;8.596;2022-08-25T07:41:21;26.10;55.40
6738;DHT22;3406;49.902;8.596;2022-08-25T07:43:48;26.20;55.30
6738;DHT22;3406;49.902;8.596;2022-08-25T07:46:15;26.30;55.20
6738;DHT22;3406;49.902;8.596;2022-08-25T07:48:41;26.40;55.10
6738;DHT22;3406;49.902;8.596;2022-08-25T07:51:10;26.50;54.90
6738;DHT22;3406;49.902;8.596;2022-08-25T07:53:38;26.50;54.90
6738;DHT22;3406;49.902;8.596;2022-08-25T07:56:10;26.50;54.90
6738;DHT22;3406;49.902;8.596;2022-08-25T07:58:37;26.50;54.90
6738;DHT22;3406;49.902;8.596;2022-08-25T08:01:04;26.50;54.90
6738;DHT22;3406;49.902;8.596;2022-08-25T08:03:32;26.50;54.80
6738;DHT22;3406;49.902;8.596;2022-08-25T08:05:59;26.60;54.80
6738;DHT22;3406;49.902;8.596;2022-08-25T08:08:26;26.70;54.70
6738;DHT22;3406;49.902;8.596;2022-08-25T08:10:52;26.70;54.60
6738;DHT22;3406;49.902;8.596;2022-08-25T08:13:20;26.80;54.50
6738;DHT22;3406;49.902;8.596;2022-08-25T08:15:48;26.90;54.40
6738;DHT22;3406;49.902;8.596;2022-08-25T08:18:15;26.80;54.20
6738;DHT22;3406;49.902;8.596;2022-08-25T08:20:43;26.80;54.20
6738;DHT22;3406;49.902;8.596;2022-08-25T08:23:10;26.80;54.80
6738;DHT22;3406;49.902;8.596;2022-08-25T08:25:37;26.80;54.10
6738;DHT22;3406;49.902;8.596;2022-08-25T08:28:04;26.80;54.00
6738;DHT22;3406;49.902;8.596;2022-08-25T08:30:32;26.80;54.10
6738;DHT22;3406;49.902;8.596;2022-08-25T08:32:58;26.90;54.10
6738;DHT22;3406;49.902;8.596;2022-08-25T08:35:25;27.00;54.00
6738;DHT22;3406;49.902;8.596;2022-08-25T08:37:52;27.10;53.90
6738;DHT22;3406;49.902;8.596;2022-08-25T08:40:19;27.20;53.70
6738;DHT22;3406;49.902;8.596;2022-08-25T08:42:54;27.20;53.50
6738;DHT22;3406;49.902;8.596;2022-08-25T08:45:40;27.30;53.30
6738;DHT22;3406;49.902;8.596;2022-08-25T08:48:24;27.30;53.20
6738;DHT22;3406;49.902;8.596;2022-08-25T08:51:01;27.20;53.00
6738;DHT22;3406;49.902;8.596;2022-08-25T08:53:39;27.20;53.00
6738;DHT22;3406;49.902;8.596;2022-08-25T08:56:10;27.30;52.90
6738;DHT22;3406;49.902;8.596;2022-08-25T08:58:42;27.30;52.70
6738;DHT22;3406;49.902;8.596;2022-08-25T09:01:15;27.40;52.60
6738;DHT22;3406;49.902;8.596;2022-08-25T09:03:45;27.50;52.40
6738;DHT22;3406;49.902;8.596;2022-08-25T09:06:19;27.50;52.10
6738;DHT22;3406;49.902;8.596;2022-08-25T09:08:46;27.60;52.00
6738;DHT22;3406;49.902;8.596;2022-08-25T09:11:22;27.70;51.90
6738;DHT22;3406;49.902;8.596;2022-08-25T09:14:03;27.80;51.90
6738;DHT22;3406;49.902;8.596;2022-08-25T09:16:42;27.90;51.70
6738;DHT22;3406;49.902;8.596;2022-08-25T09:19:40;28.00;51.60
6738;DHT22;3406;49.902;8.596;2022-08-25T09:23:26;28.00;50.60
6738;DHT22;3406;49.902;8.596;2022-08-25T09:26:02;28.10;51.10
6738;DHT22;3406;49.902;8.596;2022-08-25T09:28:39;28.20;50.90
6738;DHT22;3406;49.902;8.596;2022-08-25T09:31:14;28.20;50.60
6738;DHT22;3406;49.902;8.596;2022-08-25T09:33:43;28.30;50.30
6738;DHT22;3406;49.902;8.596;2022-08-25T09:36:09;28.40;50.20
6738;DHT22;3406;49.902;8.596;2022-08-25T09:38:37;28.50;50.00
6738;DHT22;3406;49.902;8.596;2022-08-25T09:41:05;28.70;49.90
6738;DHT22;3406;49.902;8.596;2022-08-25T09:43:35;28.80;49.80
6738;DHT22;3406;49.902;8.596;2022-08-25T09:46:09;28.90;49.70
6738;DHT22;3406;49.902;8.596;2022-08-25T09:48:44;29.00;49.60
6738;DHT22;3406;49.902;8.596;2022-08-25T09:51:17;28.90;49.30
6738;DHT22;3406;49.902;8.596;2022-08-25T09:53:51;29.00;49.40
6738;DHT22;3406;49.902;8.596;2022-08-25T09:56:20;29.00;49.10
6738;DHT22;3406;49.902;8.596;2022-08-25T09:58:48;29.00;49.20
6738;DHT22;3406;49.902;8.596;2022-08-25T10:01:17;29.00;49.20
6738;DHT22;3406;49.902;8.596;2022-08-25T10:03:56;29.10;49.20
6738;DHT22;3406;49.902;8.596;2022-08-25T10:06:24;29.10;49.10
6738;DHT22;3406;49.902;8.596;2022-08-25T10:08:57;29.10;48.90
6738;DHT22;3406;49.902;8.596;2022-08-25T10:11:34;29.10;49.00
6738;DHT22;3406;49.902;8.596;2022-08-25T10:14:05;29.10;49.20
6738;DHT22;3406;49.902;8.596;2022-08-25T10:16:32;29.10;49.10
6738;DHT22;3406;49.902;8.596;2022-08-25T10:19:03;29.10;49.00
6738;DHT22;3406;49.902;8.596;2022-08-25T10:21:30;29.20;49.00
6738;DHT22;3406;49.902;8.596;2022-08-25T10:23:58;29.30;48.70
6738;DHT22;3406;49.902;8.596;2022-08-25T10:26:33;29.40;48.20
6738;DHT22;3406;49.902;8.596;2022-08-25T10:29:10;29.50;48.20
6738;DHT22;3406;49.902;8.596;2022-08-25T10:31:45;29.50;47.90
6738;DHT22;3406;49.902;8.596;2022-08-25T10:34:21;29.60;47.70
6738;DHT22;3406;49.902;8.596;2022-08-25T10:37:00;29.60;47.30
6738;DHT22;3406;49.902;8.596;2022-08-25T10:39:37;29.70;47.30
6738;DHT22;3406;49.902;8.596;2022-08-25T10:42:18;29.70;47.00
6738;DHT22;3406;49.902;8.596;2022-08-25T10:45:04;29.80;47.10
6738;DHT22;3406;49.902;8.596;2022-08-25T10:48:16;29.90;46.90
6738;DHT22;3406;49.902;8.596;2022-08-25T10:50:47;30.00;46.50
6738;DHT22;3406;49.902;8.596;2022-08-25T10:53:39;30.00;46.30
6738;DHT22;3406;49.902;8.596;2022-08-25T10:56:13;30.10;46.50
6738;DHT22;3406;49.902;8.596;2022-08-25T10:59:09;30.20;46.20
6738;DHT22;3406;49.902;8.596;2022-08-25T11:01:46;30.20;45.60
6738;DHT22;3406;49.902;8.596;2022-08-25T11:04:20;30.20;45.40
6738;DHT22;3406;49.902;8.596;2022-08-25T11:06:55;30.10;45.30
6738;DHT22;3406;49.902;8.596;2022-08-25T11:09:28;30.20;45.40
6738;DHT22;3406;49.902;8.596;2022-08-25T11:11:59;30.20;45.30
6738;DHT22;3406;49.902;8.596;2022-08-25T11:14:30;30.30;45.10
6738;DHT22;3406;49.902;8.596;2022-08-25T11:17:03;30.40;45.10
6738;DHT22;3406;49.902;8.596;2022-08-25T11:19:33;30.40;44.90
6738;DHT22;3406;49.902;8.596;2022-08-25T11:22:06;30.50;44.70
6738;DHT22;3406;49.902;8.596;2022-08-25T11:24:46;30.70;44.70
6738;DHT22;3406;49.902;8.596;2022-08-25T11:27:20;30.80;44.20
6738;DHT22;3406;49.902;8.596;2022-08-25T11:29:55;30.90;43.40
6738;DHT22;3406;49.902;8.596;2022-08-25T11:32:25;31.20;42.90
6738;DHT22;3406;49.902;8.596;2022-08-25T11:34:52;31.20;42.60
6738;DHT22;3406;49.902;8.596;2022-08-25T11:37:22;31.30;42.20
6738;DHT22;3406;49.902;8.596;2022-08-25T11:40:18;31.50;42.30
6738;DHT22;3406;49.902;8.596;2022-08-25T11:42:58;31.70;42.00
6738;DHT22;3406;49.902;8.596;2022-08-25T11:45:55;31.70;41.90
6738;DHT22;3406;49.902;8.596;2022-08-25T11:48:36;31.70;41.80
6738;DHT22;3406;49.902;8.596;2022-08-25T11:51:07;31.70;41.40
6738;DHT22;3406;49.902;8.596;2022-08-25T11:53:35;31.70;40.90
6738;DHT22;3406;49.902;8.596;2022-08-25T11:56:05;31.70;40.90
6738;DHT22;3406;49.902;8.596;2022-08-25T11:58:43;31.80;40.90
6738;DHT22;3406;49.902;8.596;2022-08-25T12:04:31;32.10;40.70
6738;DHT22;3406;49.902;8.596;2022-08-25T12:07:19;32.20;40.60
6738;DHT22;3406;49.902;8.596;2022-08-25T12:10:12;32.30;40.10
6738;DHT22;3406;49.902;8.596;2022-08-25T12:13:22;32.30;39.80
6738;DHT22;3406;49.902;8.596;2022-08-25T12:15:57;32.20;39.90
6738;DHT22;3406;49.902;8.596;2022-08-25T12:18:41;32.20;39.90
6738;DHT22;3406;49.902;8.596;2022-08-25T12:24:11;32.10;39.80
6738;DHT22;3406;49.902;8.596;2022-08-25T12:26:47;32.10;39.80
6738;DHT22;3406;49.902;8.596;2022-08-25T12:29:26;32.00;39.80
6738;DHT22;3406;49.902;8.596;2022-08-25T12:32:13;31.90;39.80
6738;DHT22;3406;49.902;8.596;2022-08-25T12:35:10;31.90;39.70
6738;DHT22;3406;49.902;8.596;2022-08-25T12:37:57;31.90;39.70
6738;DHT22;3406;49.902;8.596;2022-08-25T12:40:28;31.90;39.70
6738;DHT22;3406;49.902;8.596;2022-08-25T12:43:02;32.00;39.60
6738;DHT22;3406;49.902;8.596;2022-08-25T12:45:35;32.10;39.40
6738;DHT22;3406;49.902;8.596;2022-08-25T12:48:40;32.20;39.40
6738;DHT22;3406;49.902;8.596;2022-08-25T12:51:15;32.30;39.30
6738;DHT22;3406;49.902;8.596;2022-08-25T12:53:45;32.40;39.20
6738;DHT22;3406;49.902;8.596;2022-08-25T12:56:26;32.50;39.00
6738;DHT22;3406;49.902;8.596;2022-08-25T12:59:00;32.60;39.00
6738;DHT22;3406;49.902;8.596;2022-08-25T13:01:35;32.60;39.00
6738;DHT22;3406;49.902;8.596;2022-08-25T13:07:15;32.50;38.80
6738;DHT22;3406;49.902;8.596;2022-08-25T13:10:19;32.30;38.80
6738;DHT22;3406;49.902;8.596;2022-08-25T13:12:50;32.20;39.10
6738;DHT22;3406;49.902;8.596;2022-08-25T13:15:36;32.20;39.00
6738;DHT22;3406;49.902;8.596;2022-08-25T13:18:22;32.20;39.10
6738;DHT22;3406;49.902;8.596;2022-08-25T13:20:54;32.30;39.20
6738;DHT22;3406;49.902;8.596;2022-08-25T13:23:27;32.30;38.80
6738;DHT22;3406;49.902;8.596;2022-08-25T13:25:55;32.30;38.80
6738;DHT22;3406;49.902;8.596;2022-08-25T13:28:27;32.30;38.80
6738;DHT22;3406;49.902;8.596;2022-08-25T13:30:57;32.30;38.70
6738;DHT22;3406;49.902;8.596;2022-08-25T13:33:24;32.40;38.60
6738;DHT22;3406;49.902;8.596;2022-08-25T13:35:54;32.40;38.40
6738;DHT22;3406;49.902;8.596;2022-08-25T13:38:42;32.30;38.60
6738;DHT22;3406;49.902;8.596;2022-08-25T13:41:08;32.30;38.60
6738;DHT22;3406;49.902;8.596;2022-08-25T13:43:36;32.30;38.70
6738;DHT22;3406;49.902;8.596;2022-08-25T13:46:04;32.40;38.50
6738;DHT22;3406;49.902;8.596;2022-08-25T13:48:33;32.40;38.40
6738;DHT22;3406;49.902;8.596;2022-08-25T13:51:09;32.50;38.10
6738;DHT22;3406;49.902;8.596;2022-08-25T13:53:51;32.50;38.00
6738;DHT22;3406;49.902;8.596;2022-08-25T13:56:29;32.40;38.00
6738;DHT22;3406;49.902;8.596;2022-08-25T13:58:58;32.60;38.10
6738;DHT22;3406;49.902;8.596;2022-08-25T14:01:27;32.60;38.10
6738;DHT22;3406;49.902;8.596;2022-08-25T14:03:56;32.70;37.90
6738;DHT22;3406;49.902;8.596;2022-08-25T14:06:26;32.60;37.70
6738;DHT22;3406;49.902;8.596;2022-08-25T14:09:12;32.40;37.90
6738;DHT22;3406;49.902;8.596;2022-08-25T14:11:43;32.20;38.20
6738;DHT22;3406;49.902;8.596;2022-08-25T14:14:13;31.90;38.60
6738;DHT22;3406;49.902;8.596;2022-08-25T14:17:00;31.70;38.80
6738;DHT22;3406;49.902;8.596;2022-08-25T14:19:27;31.60;39.10
6738;DHT22;3406;49.902;8.596;2022-08-25T14:21:56;31.60;39.40
6738;DHT22;3406;49.902;8.596;2022-08-25T14:24:29;31.50;39.40
6738;DHT22;3406;49.902;8.596;2022-08-25T14:26:56;31.50;39.50
6738;DHT22;3406;49.902;8.596;2022-08-25T14:29:23;31.60;39.50
6738;DHT22;3406;49.902;8.596;2022-08-25T14:31:50;31.70;39.20
6738;DHT22;3406;49.902;8.596;2022-08-25T14:34:19;31.90;39.10
6738;DHT22;3406;49.902;8.596;2022-08-25T14:36:47;32.10;38.80
6738;DHT22;3406;49.902;8.596;2022-08-25T14:39:16;32.30;38.60
6738;DHT22;3406;49.902;8.596;2022-08-25T14:41:43;32.40;38.20
6738;DHT22;3406;49.902;8.596;2022-08-25T14:44:11;32.60;38.00
6738;DHT22;3406;49.902;8.596;2022-08-25T14:46:42;32.80;37.70
6738;DHT22;3406;49.902;8.596;2022-08-25T14:49:11;32.90;37.60
6738;DHT22;3406;49.902;8.596;2022-08-25T14:51:41;32.90;37.20
6738;DHT22;3406;49.902;8.596;2022-08-25T14:54:12;32.90;37.30
6738;DHT22;3406;49.902;8.596;2022-08-25T14:56:40;32.80;37.30
6738;DHT22;3406;49.902;8.596;2022-08-25T14:59:07;32.80;37.40
6738;DHT22;3406;49.902;8.596;2022-08-25T15:01:34;32.80;37.50
6738;DHT22;3406;49.902;8.596;2022-08-25T15:04:03;32.60;37.60
6738;DHT22;3406;49.902;8.596;2022-08-25T15:06:32;32.40;37.60
6738;DHT22;3406;49.902;8.596;2022-08-25T15:08:59;32.20;37.60
6738;DHT22;3406;49.902;8.596;2022-08-25T15:11:41;32.10;37.90
6738;DHT22;3406;49.902;8.596;2022-08-25T15:14:09;31.90;38.10
6738;DHT22;3406;49.902;8.596;2022-08-25T15:16:38;31.90;38.30
6738;DHT22;3406;49.902;8.596;2022-08-25T15:19:07;32.00;38.20
6738;DHT22;3406;49.902;8.596;2022-08-25T15:21:36;32.00;38.10
6738;DHT22;3406;49.902;8.596;2022-08-25T15:24:03;32.10;38.20
6738;DHT22;3406;49.902;8.596;2022-08-25T15:26:38;32.10;38.10
6738;DHT22;3406;49.902;8.596;2022-08-25T15:29:07;32.30;38.10
6738;DHT22;3406;49.902;8.596;2022-08-25T15:31:33;32.40;37.70
6738;DHT22;3406;49.902;8.596;2022-08-25T15:34:00;32.50;37.40
6738;DHT22;3406;49.902;8.596;2022-08-25T15:36:27;32.40;37.30
6738;DHT22;3406;49.902;8.596;2022-08-25T15:38:53;32.20;37.50
6738;DHT22;3406;49.902;8.596;2022-08-25T15:41:20;32.10;37.70
6738;DHT22;3406;49.902;8.596;2022-08-25T15:43:47;32.00;37.90
6738;DHT22;3406;49.902;8.596;2022-08-25T15:46:18;31.90;38.00
6738;DHT22;3406;49.902;8.596;2022-08-25T15:48:46;31.70;38.10
6738;DHT22;3406;49.902;8.596;2022-08-25T15:51:14;31.70;38.20
6738;DHT22;3406;49.902;8.596;2022-08-25T15:53:42;31.70;38.30
6738;DHT22;3406;49.902;8.596;2022-08-25T15:56:09;31.70;38.40
6738;DHT22;3406;49.902;8.596;2022-08-25T15:58:39;31.60;38.80
6738;DHT22;3406;49.902;8.596;2022-08-25T16:01:05;31.70;38.30
6738;DHT22;3406;49.902;8.596;2022-08-25T16:03:33;31.60;38.10
6738;DHT22;3406;49.902;8.596;2022-08-25T16:06:02;31.70;38.30
6738;DHT22;3406;49.902;8.596;2022-08-25T16:08:29;31.80;38.20
6738;DHT22;3406;49.902;8.596;2022-08-25T16:10:56;32.00;38.00
6738;DHT22;3406;49.902;8.596;2022-08-25T16:13:22;32.20;37.90
6738;DHT22;3406;49.902;8.596;2022-08-25T16:15:49;32.40;37.60
6738;DHT22;3406;49.902;8.596;2022-08-25T16:18:16;32.50;37.40
6738;DHT22;3406;49.902;8.596;2022-08-25T16:20:46;32.60;37.10
6738;DHT22;3406;49.902;8.596;2022-08-25T16:23:14;32.60;37.10
6738;DHT22;3406;49.902;8.596;2022-08-25T16:25:43;32.70;37.10
6738;DHT22;3406;49.902;8.596;2022-08-25T16:28:11;32.80;37.00
6738;DHT22;3406;49.902;8.596;2022-08-25T16:30:39;33.00;37.00
6738;DHT22;3406;49.902;8.596;2022-08-25T16:33:09;33.00;36.80
6738;DHT22;3406;49.902;8.596;2022-08-25T16:35:36;33.00;36.90
6738;DHT22;3406;49.902;8.596;2022-08-25T16:38:04;33.10;36.80